sensor_id;sensor_type;location;lat;lon;timestamp;pressure;altitude;pressure_sealevel;temperature;humidity
9969;BME280;5025;48.890;9.278;2023-07-20T00:01:39;98584.66;;;21.54;44.98
9969;BME280;5025;48.890;9.278;2023-07-20T00:04:10;98587.59;;;21.44;45.18
9969;BME280;5025;48.890;9.278;2023-07-20T00:06:35;98584.03;;;21.29;45.61
9969;BME280;5025;48.890;9.278;2023-07-20T00:09:01;98590.94;;;21.27;46.20
9969;BME280;5025;48.890;9.278;2023-07-20T00:11:27;98595.13;;;21.24;45.80
9969;BME280;5025;48.890;9.278;2023-07-20T00:13:53;98599.06;;;21.18;45.93
9969;BME280;5025;48.890;9.278;2023-07-20T00:16:18;98595.41;;;21.09;46.40
9969;BME280;5025;48.890;9.278;2023-07-20T00:18:43;98598.25;;;21.04;46.19
9969;BME280;5025;48.890;9.278;2023-07-20T00:21:09;98596.41;;;20.99;46.04
9969;BME280;5025;48.890;9.278;2023-07-20T00:23:34;98597.31;;;20.94;45.61
9969;BME280;5025;48.890;9.278;2023-07-20T00:25:59;98595.59;;;20.99;45.58
9969;BME280;5025;48.890;9.278;2023-07-20T00:28:25;98601.59;;;21.01;45.40
9969;BME280;5025;48.890;9.278;2023-07-20T00:30:50;98603.13;;;20.93;44.79
9969;BME280;5025;48.890;9.278;2023-07-20T00:33:16;98600.66;;;20.91;45.30
9969;BME280;5025;48.890;9.278;2023-07-20T00:35:42;98587.44;;;20.93;44.94
9969;BME280;5025;48.890;9.278;2023-07-20T00:38:07;98594.75;;;20.84;44.52
9969;BME280;5025;48.890;9.278;2023-07-20T00:40:36;98589.66;;;20.77;44.76
9969;BME280;5025;48.890;9.278;2023-07-20T00:43:02;98590.75;;;20.76;44.72
9969;BME280;5025;48.890;9.278;2023-07-20T00:45:29;98588.75;;;20.82;44.62
9969;BME280;5025;48.890;9.278;2023-07-20T00:47:54;98594.16;;;20.87;44.73
9969;BME280;5025;48.890;9.278;2023-07-20T00:50:20;98588.44;;;20.84;44.88
9969;BME280;5025;48.890;9.278;2023-07-20T00:52:45;98597.06;;;20.77;44.66
9969;BME280;5025;48.890;9.278;2023-07-20T00:55:10;98590.03;;;20.71;45.08
9969;BME280;5025;48.890;9.278;2023-07-20T00:57:36;98593.44;;;20.63;45.10
9969;BME280;5025;48.890;9.278;2023-07-20T01:00:02;98588.09;;;20.52;45.58
9969;BME280;5025;48.890;9.278;2023-07-20T01:02:27;98596.13;;;20.49;45.57
9969;BME280;5025;48.890;9.278;2023-07-20T01:04:52;98596.72;;;20.46;45.57
9969;BME280;5025;48.890;9.278;2023-07-20T01:07:30;98601.31;;;20.50;45.60
9969;BME280;5025;48.890;9.278;2023-07-20T01:10:14;98599.06;;;20.52;45.59
9969;BME280;5025;48.890;9.278;2023-07-20T01:12:48;98594.72;;;20.51;45.53
9969;BME280;5025;48.890;9.278;2023-07-20T01:15:16;98597.97;;;20.53;45.60
9969;BME280;5025;48.890;9.278;2023-07-20T01:17:41;98601.75;;;20.57;45.58
9969;BME280;5025;48.890;9.278;2023-07-20T01:20:08;98596.78;;;20.59;45.41
9969;BME280;5025;48.890;9.278;2023-07-20T01:22:43;98597.06;;;20.58;45.58
9969;BME280;5025;48.890;9.278;2023-07-20T01:25:21;98593.81;;;20.56;45.43
9969;BME280;5025;48.890;9.278;2023-07-20T01:28:07;98599.81;;;20.58;45.69
9969;BME280;5025;48.890;9.278;2023-07-20T01:33:35;98602.72;;;20.48;45.63
9969;BME280;5025;48.890;9.278;2023-07-20T01:36:01;98601.47;;;20.40;46.14
9969;BME280;5025;48.890;9.278;2023-07-20T01:38:28;98600.16;;;20.37;45.98
9969;BME280;5025;48.890;9.278;2023-07-20T01:40:54;98594.44;;;20.34;46.19
9969;BME280;5025;48.890;9.278;2023-07-20T01:43:19;98599.09;;;20.33;46.44
9969;BME280;5025;48.890;9.278;2023-07-20T01:45:45;98599.09;;;20.33;46.31
9969;BME280;5025;48.890;9.278;2023-07-20T01:48:10;98594.50;;;20.29;46.38
9969;BME280;5025;48.890;9.278;2023-07-20T01:50:35;98594.00;;;20.27;46.31
9969;BME280;5025;48.890;9.278;2023-07-20T01:53:01;98602.88;;;20.18;46.33
9969;BME280;5025;48.890;9.278;2023-07-20T01:55:26;98601.31;;;20.12;46.51
9969;BME280;5025;48.890;9.278;2023-07-20T01:57:52;98598.06;;;20.10;46.51
9969;BME280;5025;48.890;9.278;2023-07-20T02:00:18;98603.56;;;20.10;46.59
9969;BME280;5025;48.890;9.278;2023-07-20T02:02:46;98599.78;;;20.06;46.58
9969;BME280;5025;48.890;9.278;2023-07-20T02:05:11;98602.00;;;20.04;47.04
9969;BME280;5025;48.890;9.278;2023-07-20T02:07:37;98604.75;;;20.04;46.64
9969;BME280;5025;48.890;9.278;2023-07-20T02:10:02;98609.94;;;20.05;46.81
9969;BME280;5025;48.890;9.278;2023-07-20T02:12:27;98606.97;;;20.02;46.76
9969;BME280;5025;48.890;9.278;2023-07-20T02:14:52;98605.34;;;20.01;46.99
9969;BME280;5025;48.890;9.278;2023-07-20T02:17:18;98602.00;;;20.04;46.87
9969;BME280;5025;48.890;9.278;2023-07-20T02:19:43;98610.22;;;20.04;46.98
9969;BME280;5025;48.890;9.278;2023-07-20T02:22:08;98606.38;;;20.05;47.24
9969;BME280;5025;48.890;9.278;2023-07-20T02:24:34;98608.00;;;20.06;46.86
9969;BME280;5025;48.890;9.278;2023-07-20T02:26:59;98603.09;;;20.03;47.18
9969;BME280;5025;48.890;9.278;2023-07-20T02:29:24;98601.53;;;19.97;47.10
9969;BME280;5025;48.890;9.278;2023-07-20T02:31:49;98603.25;;;19.93;47.32
9969;BME280;5025;48.890;9.278;2023-07-20T02:34:15;98606.28;;;19.91;47.52
9969;BME280;5025;48.890;9.278;2023-07-20T02:36:40;98606.88;;;19.88;47.21
9969;BME280;5025;48.890;9.278;2023-07-20T02:39:08;98609.38;;;19.84;47.50
9969;BME280;5025;48.890;9.278;2023-07-20T02:41:33;98613.84;;;19.80;47.20
9969;BME280;5025;48.890;9.278;2023-07-20T02:43:59;98613.41;;;19.68;47.76
9969;BME280;5025;48.890;9.278;2023-07-20T02:46:24;98614.59;;;19.62;47.86
9969;BME280;5025;48.890;9.278;2023-07-20T02:48:49;98613.53;;;19.58;48.10
9969;BME280;5025;48.890;9.278;2023-07-20T02:51:15;98619.94;;;19.48;48.28
9969;BME280;5025;48.890;9.278;2023-07-20T02:53:40;98617.78;;;19.45;48.33
9969;BME280;5025;48.890;9.278;2023-07-20T02:56:06;98621.03;;;19.47;48.53
9969;BME280;5025;48.890;9.278;2023-07-20T02:58:33;98621.88;;;19.47;48.54
9969;BME280;5025;48.890;9.278;2023-07-20T03:01:02;98626.22;;;19.48;48.62
9969;BME280;5025;48.890;9.278;2023-07-20T03:03:27;98628.16;;;19.48;48.38
9969;BME280;5025;48.890;9.278;2023-07-20T03:05:52;98630.09;;;19.47;48.73
9969;BME280;5025;48.890;9.278;2023-07-20T03:08:19;98622.97;;;19.46;48.62
9969;BME280;5025;48.890;9.278;2023-07-20T03:10:45;98624.63;;;19.47;48.75
9969;BME280;5025;48.890;9.278;2023-07-20T03:13:10;98621.63;;;19.44;48.91
9969;BME280;5025;48.890;9.278;2023-07-20T03:15:35;98631.25;;;19.41;48.93
9969;BME280;5025;48.890;9.278;2023-07-20T03:18:01;98632.66;;;19.39;49.04
9969;BME280;5025;48.890;9.278;2023-07-20T03:20:26;98635.69;;;19.37;49.09
9969;BME280;5025;48.890;9.278;2023-07-20T03:22:51;98638.72;;;19.35;49.30
9969;BME280;5025;48.890;9.278;2023-07-20T03:25:16;98635.44;;;19.33;49.43
9969;BME280;5025;48.890;9.278;2023-07-20T03:27:42;98640.09;;;19.33;49.39
9969;BME280;5025;48.890;9.278;2023-07-20T03:30:08;98637.63;;;19.31;49.57
9969;BME280;5025;48.890;9.278;2023-07-20T03:32:34;98637.94;;;19.30;49.39
9969;BME280;5025;48.890;9.278;2023-07-20T03:35:00;98635.78;;;19.27;49.78
9969;BME280;5025;48.890;9.278;2023-07-20T03:37:25;98636.34;;;19.24;49.69
9969;BME280;5025;48.890;9.278;2023-07-20T03:39:50;98634.19;;;19.21;49.76
9969;BME280;5025;48.890;9.278;2023-07-20T03:42:16;98633.97;;;19.17;50.07
9969;BME280;5025;48.890;9.278;2023-07-20T03:44:41;98631.81;;;19.14;49.96
9969;BME280;5025;48.890;9.278;2023-07-20T03:47:06;98637.06;;;19.10;50.01
9969;BME280;5025;48.890;9.278;2023-07-20T03:49:32;98637.38;;;19.04;50.27
9969;BME280;5025;48.890;9.278;2023-07-20T03:51:57;98648.66;;;18.97;50.58
9969;BME280;5025;48.890;9.278;2023-07-20T03:54:22;98649.81;;;18.91;50.54
9969;BME280;5025;48.890;9.278;2023-07-20T03:56:47;98651.78;;;18.80;50.87
9969;BME280;5025;48.890;9.278;2023-07-20T03:59:13;98651.34;;;18.68;51.00
9969;BME280;5025;48.890;9.278;2023-07-20T04:01:38;98656.06;;;18.57;51.30
9969;BME280;5025;48.890;9.278;2023-07-20T04:04:06;98653.38;;;18.46;51.57
9969;BME280;5025;48.890;9.278;2023-07-20T04:06:32;98652.06;;;18.44;51.99
9969;BME280;5025;48.890;9.278;2023-07-20T04:08:57;98655.03;;;18.48;51.97
9969;BME280;5025;48.890;9.278;2023-07-20T04:11:22;98656.38;;;18.50;52.24
9969;BME280;5025;48.890;9.278;2023-07-20T04:13:48;98655.28;;;18.51;52.05
9969;BME280;5025;48.890;9.278;2023-07-20T04:16:13;98650.91;;;18.50;52.30
9969;BME280;5025;48.890;9.278;2023-07-20T04:18:38;98660.44;;;18.53;52.23
9969;BME280;5025;48.890;9.278;2023-07-20T04:21:03;98662.63;;;18.56;52.34
9969;BME280;5025;48.890;9.278;2023-07-20T04:23:29;98668.94;;;18.51;52.13
9969;BME280;5025;48.890;9.278;2023-07-20T04:25:54;98665.16;;;18.47;52.31
9969;BME280;5025;48.890;9.278;2023-07-20T04:28:19;98666.50;;;18.50;52.46
9969;BME280;5025;48.890;9.278;2023-07-20T04:30:49;98673.59;;;18.51;52.52
9969;BME280;5025;48.890;9.278;2023-07-20T04:33:15;98669.78;;;18.52;52.32
9969;BME280;5025;48.890;9.278;2023-07-20T04:35:51;98666.78;;;18.48;52.65
9969;BME280;5025;48.890;9.278;2023-07-20T04:38:18;98670.38;;;18.43;52.78
9969;BME280;5025;48.890;9.278;2023-07-20T04:40:48;98663.84;;;18.39;52.92
9969;BME280;5025;48.890;9.278;2023-07-20T04:43:14;98659.47;;;18.38;53.19
9969;BME280;5025;48.890;9.278;2023-07-20T04:45:42;98665.50;;;18.40;53.09
9969;BME280;5025;48.890;9.278;2023-07-20T04:48:15;98660.03;;;18.40;53.10
9969;BME280;5025;48.890;9.278;2023-07-20T04:50:41;98658.63;;;18.43;53.14
9969;BME280;5025;48.890;9.278;2023-07-20T04:53:08;98663.84;;;18.39;53.29
9969;BME280;5025;48.890;9.278;2023-07-20T04:55:35;98667.38;;;18.40;53.38
9969;BME280;5025;48.890;9.278;2023-07-20T04:58:02;98666.34;;;18.36;53.36
9969;BME280;5025;48.890;9.278;2023-07-20T05:00:27;98666.34;;;18.36;53.79
9969;BME280;5025;48.890;9.278;2023-07-20T05:02:52;98668.50;;;18.34;54.00
9969;BME280;5025;48.890;9.278;2023-07-20T05:05:18;98672.91;;;18.35;54.00
9969;BME280;5025;48.890;9.278;2023-07-20T05:07:43;98669.34;;;18.34;54.11
9969;BME280;5025;48.890;9.278;2023-07-20T05:10:09;98668.78;;;18.37;54.19
9969;BME280;5025;48.890;9.278;2023-07-20T05:12:35;98671.47;;;18.42;54.22
9969;BME280;5025;48.890;9.278;2023-07-20T05:15:00;98664.03;;;18.48;54.20
9969;BME280;5025;48.890;9.278;2023-07-20T05:17:25;98663.19;;;18.53;54.01
9969;BME280;5025;48.890;9.278;2023-07-20T05:19:50;98671.94;;;18.55;54.18
9969;BME280;5025;48.890;9.278;2023-07-20T05:22:16;98669.69;;;18.62;54.04
9969;BME280;5025;48.890;9.278;2023-07-20T05:24:41;98670.75;;;18.66;53.98
9969;BME280;5025;48.890;9.278;2023-07-20T05:27:07;98671.84;;;18.70;54.12
9969;BME280;5025;48.890;9.278;2023-07-20T05:29:32;98672.88;;;18.74;54.02
9969;BME280;5025;48.890;9.278;2023-07-20T05:31:58;98669.84;;;18.76;54.23
9969;BME280;5025;48.890;9.278;2023-07-20T05:34:23;98668.47;;;18.78;54.07
9969;BME280;5025;48.890;9.278;2023-07-20T05:36:48;98662.16;;;18.83;54.14
9969;BME280;5025;48.890;9.278;2023-07-20T05:39:16;98664.34;;;18.86;53.99
9969;BME280;5025;48.890;9.278;2023-07-20T05:41:41;98660.75;;;18.91;53.92
9969;BME280;5025;48.890;9.278;2023-07-20T05:44:07;98657.97;;;18.96;54.03
9969;BME280;5025;48.890;9.278;2023-07-20T05:46:32;98661.47;;;19.02;54.11
9969;BME280;5025;48.890;9.278;2023-07-20T05:48:57;98661.97;;;19.09;53.82
9969;BME280;5025;48.890;9.278;2023-07-20T05:51:22;98661.09;;;19.13;53.89
9969;BME280;5025;48.890;9.278;2023-07-20T05:53:48;98653.94;;;19.17;53.67
9969;BME280;5025;48.890;9.278;2023-07-20T05:56:13;98659.41;;;19.17;53.77
9969;BME280;5025;48.890;9.278;2023-07-20T05:58:39;98665.66;;;19.23;53.71
9969;BME280;5025;48.890;9.278;2023-07-20T06:01:04;98661.78;;;19.29;53.67
9969;BME280;5025;48.890;9.278;2023-07-20T06:03:32;98655.94;;;19.36;53.54
9969;BME280;5025;48.890;9.278;2023-07-20T06:06:02;98667.16;;;19.40;53.46
9969;BME280;5025;48.890;9.278;2023-07-20T06:08:29;98662.72;;;19.44;53.45
9969;BME280;5025;48.890;9.278;2023-07-20T06:10:54;98660.75;;;19.49;53.41
9969;BME280;5025;48.890;9.278;2023-07-20T06:13:20;98668.44;;;19.47;53.26
9969;BME280;5025;48.890;9.278;2023-07-20T06:15:45;98669.03;;;19.44;53.10
9969;BME280;5025;48.890;9.278;2023-07-20T06:18:10;98672.63;;;19.40;52.90
9969;BME280;5025;48.890;9.278;2023-07-20T06:20:36;98673.38;;;19.45;52.49
9969;BME280;5025;48.890;9.278;2023-07-20T06:23:01;98664.41;;;19.40;51.98
9969;BME280;5025;48.890;9.278;2023-07-20T06:25:26;98663.56;;;19.39;52.22
9969;BME280;5025;48.890;9.278;2023-07-20T06:27:51;98658.66;;;19.41;52.27
9969;BME280;5025;48.890;9.278;2023-07-20T06:30:17;98666.28;;;19.44;52.14
9969;BME280;5025;48.890;9.278;2023-07-20T06:32:43;98663.47;;;19.49;52.26
9969;BME280;5025;48.890;9.278;2023-07-20T06:35:08;98672.19;;;19.57;51.91
9969;BME280;5025;48.890;9.278;2023-07-20T06:37:34;98671.03;;;19.58;52.09
9969;BME280;5025;48.890;9.278;2023-07-20T06:40:00;98659.34;;;19.52;52.02
9969;BME280;5025;48.890;9.278;2023-07-20T06:42:25;98664.75;;;19.57;51.58
9969;BME280;5025;48.890;9.278;2023-07-20T06:44:50;98663.09;;;19.61;51.54
9969;BME280;5025;48.890;9.278;2023-07-20T06:47:16;98662.78;;;19.63;51.69
9969;BME280;5025;48.890;9.278;2023-07-20T06:49:41;98669.66;;;19.60;51.88
9969;BME280;5025;48.890;9.278;2023-07-20T06:52:06;98668.97;;;19.74;51.53
9969;BME280;5025;48.890;9.278;2023-07-20T06:54:32;98669.22;;;19.77;51.37
9969;BME280;5025;48.890;9.278;2023-07-20T06:56:57;98665.59;;;19.82;51.34
9969;BME280;5025;48.890;9.278;2023-07-20T06:59:22;98670.78;;;19.83;51.30
9969;BME280;5025;48.890;9.278;2023-07-20T07:01:49;98655.66;;;19.86;51.23
9969;BME280;5025;48.890;9.278;2023-07-20T07:04:14;98661.81;;;19.78;51.30
9969;BME280;5025;48.890;9.278;2023-07-20T07:06:39;98659.28;;;19.81;51.32
9969;BME280;5025;48.890;9.278;2023-07-20T07:09:04;98663.66;;;19.82;52.12
9969;BME280;5025;48.890;9.278;2023-07-20T07:11:30;98675.91;;;19.90;51.81
9969;BME280;5025;48.890;9.278;2023-07-20T07:13:55;98664.88;;;19.95;51.75
9969;BME280;5025;48.890;9.278;2023-07-20T07:16:21;98656.03;;;20.03;51.32
9969;BME280;5025;48.890;9.278;2023-07-20T07:18:46;98663.88;;;20.10;51.33
9969;BME280;5025;48.890;9.278;2023-07-20T07:21:12;98663.69;;;20.01;51.14
9969;BME280;5025;48.890;9.278;2023-07-20T07:23:40;98660.16;;;20.01;51.47
9969;BME280;5025;48.890;9.278;2023-07-20T07:26:05;98661.22;;;20.05;51.14
9969;BME280;5025;48.890;9.278;2023-07-20T07:28:31;98655.13;;;20.08;51.22
9969;BME280;5025;48.890;9.278;2023-07-20T07:30:57;98649.66;;;20.08;51.50
9969;BME280;5025;48.890;9.278;2023-07-20T07:33:23;98647.53;;;20.00;51.30
9969;BME280;5025;48.890;9.278;2023-07-20T07:35:52;98648.22;;;20.11;51.18
9969;BME280;5025;48.890;9.278;2023-07-20T07:38:18;98652.47;;;20.22;50.76
9969;BME280;5025;48.890;9.278;2023-07-20T07:40:43;98651.06;;;20.24;49.90
9969;BME280;5025;48.890;9.278;2023-07-20T07:43:09;98649.81;;;20.36;50.00
9969;BME280;5025;48.890;9.278;2023-07-20T07:45:35;98654.16;;;20.37;50.33
9969;BME280;5025;48.890;9.278;2023-07-20T07:48:02;98645.88;;;20.42;50.10
9969;BME280;5025;48.890;9.278;2023-07-20T07:50:27;98652.38;;;20.46;49.76
9969;BME280;5025;48.890;9.278;2023-07-20T07:52:53;98645.72;;;20.52;49.57
9969;BME280;5025;48.890;9.278;2023-07-20T07:55:18;98643.41;;;20.59;49.39
9969;BME280;5025;48.890;9.278;2023-07-20T07:57:43;98642.81;;;20.63;49.30
9969;BME280;5025;48.890;9.278;2023-07-20T08:00:09;98641.88;;;20.72;49.27
9969;BME280;5025;48.890;9.278;2023-07-20T08:02:39;98646.44;;;20.77;49.27
9969;BME280;5025;48.890;9.278;2023-07-20T08:05:05;98646.09;;;20.65;48.47
9969;BME280;5025;48.890;9.278;2023-07-20T08:07:30;98641.72;;;20.45;49.17
9969;BME280;5025;48.890;9.278;2023-07-20T08:09:55;98641.06;;;20.53;49.29
9969;BME280;5025;48.890;9.278;2023-07-20T08:12:20;98653.78;;;20.63;49.00
9969;BME280;5025;48.890;9.278;2023-07-20T08:14:46;98650.50;;;20.66;48.96
9969;BME280;5025;48.890;9.278;2023-07-20T08:17:11;98645.50;;;20.68;48.82
9969;BME280;5025;48.890;9.278;2023-07-20T08:19:37;98651.53;;;20.70;49.01
9969;BME280;5025;48.890;9.278;2023-07-20T08:22:06;98648.78;;;20.70;48.58
9969;BME280;5025;48.890;9.278;2023-07-20T08:24:31;98637.81;;;20.70;48.51
9969;BME280;5025;48.890;9.278;2023-07-20T08:26:57;98641.56;;;20.74;48.17
9969;BME280;5025;48.890;9.278;2023-07-20T08:29:23;98641.19;;;20.81;48.10
9969;BME280;5025;48.890;9.278;2023-07-20T08:31:49;98644.78;;;20.95;47.16
9969;BME280;5025;48.890;9.278;2023-07-20T08:34:14;98632.00;;;21.04;46.50
9969;BME280;5025;48.890;9.278;2023-07-20T08:36:39;98634.16;;;21.07;46.57
9969;BME280;5025;48.890;9.278;2023-07-20T08:39:04;98628.75;;;21.16;45.64
9969;BME280;5025;48.890;9.278;2023-07-20T08:41:30;98642.50;;;21.16;45.66
9969;BME280;5025;48.890;9.278;2023-07-20T08:43:56;98643.22;;;21.22;45.42
9969;BME280;5025;48.890;9.278;2023-07-20T08:46:23;98643.69;;;21.10;45.38
9969;BME280;5025;48.890;9.278;2023-07-20T08:48:50;98630.38;;;21.03;46.20
9969;BME280;5025;48.890;9.278;2023-07-20T08:51:17;98640.28;;;21.18;46.43
9969;BME280;5025;48.890;9.278;2023-07-20T08:53:45;98640.38;;;21.27;46.80
9969;BME280;5025;48.890;9.278;2023-07-20T08:56:11;98638.16;;;21.43;46.61
9969;BME280;5025;48.890;9.278;2023-07-20T08:58:37;98642.47;;;21.49;44.89
9969;BME280;5025;48.890;9.278;2023-07-20T09:01:04;98637.56;;;21.46;44.09
9969;BME280;5025;48.890;9.278;2023-07-20T09:03:30;98636.88;;;21.54;43.97
9969;BME280;5025;48.890;9.278;2023-07-20T09:05:55;98639.94;;;21.53;43.58
9969;BME280;5025;48.890;9.278;2023-07-20T09:08:20;98635.16;;;21.58;43.36
9969;BME280;5025;48.890;9.278;2023-07-20T09:10:45;98629.97;;;21.57;44.21
9969;BME280;5025;48.890;9.278;2023-07-20T09:13:15;98630.47;;;21.59;44.29
9969;BME280;5025;48.890;9.278;2023-07-20T09:15:46;98647.44;;;21.75;44.10
9969;BME280;5025;48.890;9.278;2023-07-20T09:18:11;98629.03;;;21.75;41.29
9969;BME280;5025;48.890;9.278;2023-07-20T09:20:37;98631.97;;;21.79;40.98
9969;BME280;5025;48.890;9.278;2023-07-20T09:23:06;98636.75;;;21.87;42.11
9969;BME280;5025;48.890;9.278;2023-07-20T09:25:31;98624.75;;;21.97;42.22
9969;BME280;5025;48.890;9.278;2023-07-20T09:28:02;98627.38;;;22.02;43.90
9969;BME280;5025;48.890;9.278;2023-07-20T09:30:27;98631.44;;;22.05;44.17
9969;BME280;5025;48.890;9.278;2023-07-20T09:32:53;98640.19;;;22.07;43.59
9969;BME280;5025;48.890;9.278;2023-07-20T09:35:20;98638.88;;;22.04;42.74
9969;BME280;5025;48.890;9.278;2023-07-20T09:37:47;98635.00;;;22.05;42.91
9969;BME280;5025;48.890;9.278;2023-07-20T09:40:15;98638.47;;;22.11;41.82
9969;BME280;5025;48.890;9.278;2023-07-20T09:42:42;98635.63;;;21.88;41.98
9969;BME280;5025;48.890;9.278;2023-07-20T09:45:08;98636.56;;;21.70;42.77
9969;BME280;5025;48.890;9.278;2023-07-20T09:47:35;98633.63;;;21.80;42.43
9969;BME280;5025;48.890;9.278;2023-07-20T09:50:01;98628.63;;;21.82;42.54
9969;BME280;5025;48.890;9.278;2023-07-20T09:52:29;98622.19;;;22.00;41.39
9969;BME280;5025;48.890;9.278;2023-07-20T09:54:55;98622.69;;;22.02;40.02
9969;BME280;5025;48.890;9.278;2023-07-20T09:57:21;98635.31;;;22.03;40.37
9969;BME280;5025;48.890;9.278;2023-07-20T09:59:46;98627.22;;;22.21;37.94
9969;BME280;5025;48.890;9.278;2023-07-20T10:02:23;98620.16;;;22.29;37.63
9969;BME280;5025;48.890;9.278;2023-07-20T10:04:52;98634.22;;;22.27;38.02
9969;BME280;5025;48.890;9.278;2023-07-20T10:07:19;98619.78;;;22.35;38.33
9969;BME280;5025;48.890;9.278;2023-07-20T10:09:47;98625.84;;;22.46;38.36
9969;BME280;5025;48.890;9.278;2023-07-20T10:12:15;98615.03;;;22.50;37.26
9969;BME280;5025;48.890;9.278;2023-07-20T10:14:42;98621.78;;;22.44;35.32
9969;BME280;5025;48.890;9.278;2023-07-20T10:17:11;98623.41;;;22.45;36.05
9969;BME280;5025;48.890;9.278;2023-07-20T10:19:42;98608.69;;;22.49;34.47
9969;BME280;5025;48.890;9.278;2023-07-20T10:22:14;98597.28;;;22.56;34.79
9969;BME280;5025;48.890;9.278;2023-07-20T10:24:45;98606.72;;;22.64;35.75
9969;BME280;5025;48.890;9.278;2023-07-20T10:27:10;98593.53;;;22.74;36.06
9969;BME280;5025;48.890;9.278;2023-07-20T10:29:36;98600.06;;;22.65;34.57
9969;BME280;5025;48.890;9.278;2023-07-20T10:32:02;98611.53;;;22.58;35.89
9969;BME280;5025;48.890;9.278;2023-07-20T10:34:27;98592.97;;;22.64;33.95
9969;BME280;5025;48.890;9.278;2023-07-20T10:36:53;98582.50;;;22.74;34.95
9969;BME280;5025;48.890;9.278;2023-07-20T10:39:27;98575.91;;;22.84;33.56
9969;BME280;5025;48.890;9.278;2023-07-20T10:42:02;98578.72;;;22.93;33.34
9969;BME280;5025;48.890;9.278;2023-07-20T10:44:28;98590.72;;;22.97;32.47
9969;BME280;5025;48.890;9.278;2023-07-20T10:47:01;98581.16;;;22.95;31.88
9969;BME280;5025;48.890;9.278;2023-07-20T10:49:28;98581.97;;;22.95;32.80
9969;BME280;5025;48.890;9.278;2023-07-20T10:51:58;98584.16;;;23.07;33.39
9969;BME280;5025;48.890;9.278;2023-07-20T10:56:52;98584.72;;;22.95;33.41
9969;BME280;5025;48.890;9.278;2023-07-20T11:01:50;98573.56;;;23.00;32.31
9969;BME280;5025;48.890;9.278;2023-07-20T11:04:43;98572.53;;;23.10;33.36
9969;BME280;5025;48.890;9.278;2023-07-20T11:07:09;98562.22;;;23.24;33.60
9969;BME280;5025;48.890;9.278;2023-07-20T11:09:35;98561.94;;;23.35;33.83
9969;BME280;5025;48.890;9.278;2023-07-20T11:12:14;98567.59;;;23.38;33.77
9969;BME280;5025;48.890;9.278;2023-07-20T11:14:41;98570.72;;;23.45;33.88
9969;BME280;5025;48.890;9.278;2023-07-20T11:17:14;98566.69;;;23.60;31.50
9969;BME280;5025;48.890;9.278;2023-07-20T11:19:40;98573.03;;;23.61;30.56
9969;BME280;5025;48.890;9.278;2023-07-20T11:22:06;98557.66;;;23.69;30.20
9969;BME280;5025;48.890;9.278;2023-07-20T11:24:38;98566.88;;;23.64;31.03
9969;BME280;5025;48.890;9.278;2023-07-20T11:27:03;98557.66;;;23.69;31.54
9969;BME280;5025;48.890;9.278;2023-07-20T11:29:29;98567.69;;;23.73;33.17
9969;BME280;5025;48.890;9.278;2023-07-20T11:31:54;98556.53;;;23.78;33.71
9969;BME280;5025;48.890;9.278;2023-07-20T11:34:20;98555.13;;;23.98;33.47
9969;BME280;5025;48.890;9.278;2023-07-20T11:36:48;98567.28;;;24.15;32.05
9969;BME280;5025;48.890;9.278;2023-07-20T11:39:16;98568.09;;;24.15;29.58
9969;BME280;5025;48.890;9.278;2023-07-20T11:41:49;98559.97;;;24.10;29.42
9969;BME280;5025;48.890;9.278;2023-07-20T11:44:19;98549.09;;;24.05;29.81
9969;BME280;5025;48.890;9.278;2023-07-20T11:46:46;98545.22;;;24.06;29.88
9969;BME280;5025;48.890;9.278;2023-07-20T11:49:12;98557.72;;;24.30;28.23
9969;BME280;5025;48.890;9.278;2023-07-20T11:51:38;98542.59;;;24.45;28.33
9969;BME280;5025;48.890;9.278;2023-07-20T11:54:06;98545.69;;;24.61;29.69
9969;BME280;5025;48.890;9.278;2023-07-20T11:56:32;98546.34;;;24.58;30.21
9969;BME280;5025;48.890;9.278;2023-07-20T11:58:58;98542.75;;;24.40;28.51
9969;BME280;5025;48.890;9.278;2023-07-20T12:01:28;98537.09;;;24.27;27.25
9969;BME280;5025;48.890;9.278;2023-07-20T12:04:02;98534.31;;;24.27;27.89
9969;BME280;5025;48.890;9.278;2023-07-20T12:06:28;98533.34;;;24.32;28.05
9969;BME280;5025;48.890;9.278;2023-07-20T12:08:55;98529.94;;;24.35;27.65
9969;BME280;5025;48.890;9.278;2023-07-20T12:11:37;98530.44;;;24.37;28.10
9969;BME280;5025;48.890;9.278;2023-07-20T12:14:04;98532.53;;;24.49;28.38
9969;BME280;5025;48.890;9.278;2023-07-20T12:16:30;98526.00;;;24.53;29.34
9969;BME280;5025;48.890;9.278;2023-07-20T12:19:00;98530.72;;;24.44;29.76
9969;BME280;5025;48.890;9.278;2023-07-20T12:21:26;98518.09;;;24.26;29.61
9969;BME280;5025;48.890;9.278;2023-07-20T12:23:51;98514.88;;;24.32;30.19
9969;BME280;5025;48.890;9.278;2023-07-20T12:26:16;98515.00;;;24.45;31.11
9969;BME280;5025;48.890;9.278;2023-07-20T12:28:42;98510.94;;;24.60;31.04
9969;BME280;5025;48.890;9.278;2023-07-20T12:31:08;98508.59;;;24.79;31.13
9969;BME280;5025;48.890;9.278;2023-07-20T12:33:34;98513.91;;;25.02;31.27
9969;BME280;5025;48.890;9.278;2023-07-20T12:36:00;98511.06;;;25.19;29.67
9969;BME280;5025;48.890;9.278;2023-07-20T12:38:26;98515.72;;;25.36;29.36
9969;BME280;5025;48.890;9.278;2023-07-20T12:40:53;98497.69;;;25.30;28.21
9969;BME280;5025;48.890;9.278;2023-07-20T12:43:20;98495.03;;;25.43;28.21
9969;BME280;5025;48.890;9.278;2023-07-20T12:45:45;98488.06;;;25.57;28.65
9969;BME280;5025;48.890;9.278;2023-07-20T12:48:10;98501.06;;;25.66;27.90
9969;BME280;5025;48.890;9.278;2023-07-20T12:50:36;98501.91;;;25.28;26.89
9969;BME280;5025;48.890;9.278;2023-07-20T12:53:01;98483.31;;;25.07;27.42
9969;BME280;5025;48.890;9.278;2023-07-20T12:55:28;98478.81;;;25.23;27.47
9969;BME280;5025;48.890;9.278;2023-07-20T12:57:54;98480.91;;;25.27;27.21
9969;BME280;5025;48.890;9.278;2023-07-20T13:00:19;98482.38;;;25.33;27.44
9969;BME280;5025;48.890;9.278;2023-07-20T13:02:44;98476.56;;;25.55;28.36
9969;BME280;5025;48.890;9.278;2023-07-20T13:05:10;98478.50;;;25.76;28.29
9969;BME280;5025;48.890;9.278;2023-07-20T13:07:37;98476.41;;;25.73;26.80
9969;BME280;5025;48.890;9.278;2023-07-20T13:10:04;98465.84;;;25.75;26.80
9969;BME280;5025;48.890;9.278;2023-07-20T13:12:30;98471.38;;;25.75;26.86
9969;BME280;5025;48.890;9.278;2023-07-20T13:14:56;98470.41;;;25.71;27.32
9969;BME280;5025;48.890;9.278;2023-07-20T13:17:22;98488.50;;;25.89;27.73
9969;BME280;5025;48.890;9.278;2023-07-20T13:19:48;98481.56;;;25.83;26.77
9969;BME280;5025;48.890;9.278;2023-07-20T13:22:13;98483.97;;;25.64;27.07
9969;BME280;5025;48.890;9.278;2023-07-20T13:24:40;98477.28;;;25.65;27.43
9969;BME280;5025;48.890;9.278;2023-07-20T13:27:05;98463.06;;;25.75;27.04